Buoy 32622

sailwx.info

Track history (hours):
 
Tides and Currents Weather Stations Pressure Air Temp Water Temp Dewpoint Dewpoint Depression Visibility Wind Speed Wind Dir Waves Ship Positions

Aadnyj

Last reported at 2016-Sep-28 10:00 UTC. Time now 2016-Sep-28 11:58 UTC.
Position S 07°26' W 111°44'.

Length 56 m.

Type: Towing. MMSI: 413600286.

Water temperature 24.8 ° C

Date/timePositionNaut miles runAvg speedWind from/ knotsBaromVisibWave heightAir tempDewpointWater temp
2016-Sep-28 10:00S 07°26' W 111°44'1 0.5 24.8
2016-Sep-28 08:00S 07°27' W 111°45'0 0.0 24.7
2016-Sep-28 05:00S 07°27' W 111°45'1 1.0 24.8
2016-Sep-28 04:00S 07°27' W 111°46'0 0.0 24.8
2016-Sep-28 03:00S 07°27' W 111°46'0 0.0 24.8
2016-Sep-28 02:00S 07°27' W 111°46'0 0.5 24.8
2016-Sep-28 01:00S 07°27' W 111°45'1 0.9 24.8
2016-Sep-28 00:00S 07°27' W 111°44'0 0.0 24.8
2016-Sep-27 23:00S 07°27' W 111°44'2 0.8 24.9
2016-Sep-27 21:00S 07°29' W 111°45'2 0.4 24.9
2016-Sep-27 17:00S 07°30' W 111°44'0 0.1 24.8
2016-Sep-27 16:00S 07°30' W 111°44'1 0.3 24.8
2016-Sep-27 13:00S 07°31' W 111°45'0 0.1 24.8
2016-Sep-27 12:00S 07°31' W 111°45'1 0.4 24.8
2016-Sep-27 10:00S 07°32' W 111°45'1 0.4 24.8
2016-Sep-27 08:00S 07°32' W 111°46'1 0.3 24.9
2016-Sep-27 05:00S 07°32' W 111°45'0 0.0 24.9
2016-Sep-27 04:00S 07°32' W 111°45'1 0.4 24.9
2016-Sep-27 01:00S 07°32' W 111°46'1 0.6 24.9
2016-Sep-26 23:00S 07°33' W 111°45'1 0.3 24.9
2016-Sep-26 21:00S 07°33' W 111°45'1 0.2 24.9
2016-Sep-26 18:00S 07°34' W 111°45'0 0.0 24.8
2016-Sep-26 16:00S 07°34' W 111°45'2 0.8 24.8
2016-Sep-26 14:00S 07°34' W 111°44'1 0.7 24.7
2016-Sep-26 13:00S 07°35' W 111°45'0 0.0 24.7
2016-Sep-26 12:00S 07°35' W 111°45'2 0.9 24.7
2016-Sep-26 10:00S 07°35' W 111°43'0 0.5 24.7
2016-Sep-26 09:00S 07°35' W 111°42'0 0.0 24.7
2016-Sep-26 05:00S 07°35' W 111°42'0 0.1 24.7
2016-Sep-26 02:00S 07°35' W 111°42'2 1.5 24.8
2016-Sep-26 01:00S 07°36' W 111°41'3 0.7 24.8
2016-Sep-25 21:00S 07°38' W 111°39'0 0.0 24.8
2016-Sep-25 16:00S 07°38' W 111°39'1 1.0 24.6
2016-Sep-25 15:00S 07°38' W 111°38'1 0.7 24.6
2016-Sep-25 13:00S 07°38' W 111°37'1 0.2 24.6
2016-Sep-25 09:00S 07°39' W 111°37'1 0.1 24.5
2016-Sep-25 02:00S 07°40' W 111°37'0 0.5 24.6
2016-Sep-25 01:00S 07°40' W 111°37'0 0.3 24.6
2016-Sep-25 00:00S 07°40' W 111°36'1 0.8 24.6
2016-Sep-24 23:00S 07°41' W 111°36'0 0.2 24.6
2016-Sep-24 22:00S 07°41' W 111°36'1 0.2 24.6
2016-Sep-24 17:00S 07°41' W 111°36'0 0.0 24.5
2016-Sep-24 14:00S 07°41' W 111°36'2 2.1 24.5
2016-Sep-24 13:00S 07°41' W 111°34'1 0.7 24.5
2016-Sep-24 12:00S 07°40' W 111°34'2 0.3 24.5
2016-Sep-24 04:00S 07°40' W 111°32'1 0.4 24.6
2016-Sep-24 02:00S 07°40' W 111°31'5 2.6 24.6
2016-Sep-24 00:00S 07°39' W 111°26'0 0.0 24.7
2016-Sep-23 22:00S 07°39' W 111°26'0 0.0 24.7
2016-Sep-23 18:00S 07°39' W 111°26'0 0.0 24.5
2016-Sep-23 17:00S 07°39' W 111°26'3 0.5 24.5
2016-Sep-23 12:00S 07°39' W 111°24'1 0.4 24.5
2016-Sep-23 09:00S 07°40' W 111°23'1 0.2 24.5
2016-Sep-23 05:00S 07°40' W 111°22'0 0.1 24.6
2016-Sep-23 02:00S 07°39' W 111°22'1 1.4 24.7
2016-Sep-23 01:00S 07°40' W 111°21'3 2.5 24.8
2016-Sep-23 00:00S 07°40' W 111°18'0 0.0 24.8
2016-Sep-22 22:00S 07°40' W 111°18'2 0.8 24.8
2016-Sep-22 20:00S 07°40' W 111°16'2 0.2 24.8
2016-Sep-22 12:00S 07°40' W 111°15'4 0.6 24.7
2016-Sep-22 05:00S 07°40' W 111°10'2 1.7 24.7
2016-Sep-22 04:00S 07°39' W 111°09'0 0.0 24.7
2016-Sep-22 02:00S 07°39' W 111°09'1 0.2 24.8
2016-Sep-21 21:00S 07°39' W 111°08'0 0.0 24.8
2016-Sep-21 18:00S 07°39' W 111°08'0 0.1 24.7
2016-Sep-21 14:00S 07°39' W 111°07'2 0.8 24.7
2016-Sep-21 12:00S 07°38' W 111°08'0 0.0 24.7
2016-Sep-21 10:00S 07°38' W 111°08'3 2.6 24.7
2016-Sep-21 09:00S 07°37' W 111°05'0 0.0 24.7
2016-Sep-21 06:00S 07°37' W 111°05'1 0.9 24.7
2016-Sep-21 05:00S 07°37' W 111°04'1 1.3 24.7
2016-Sep-21 04:00S 07°36' W 111°04'1 0.8 24.7
2016-Sep-21 03:00S 07°36' W 111°03'0 0.0 24.7
2016-Sep-21 02:00S 07°36' W 111°03'1 0.6 24.8
2016-Sep-21 01:00S 07°36' W 111°04'2 0.5 24.8
2016-Sep-20 22:00S 07°36' W 111°02'1 0.5 24.8
2016-Sep-20 21:00S 07°36' W 111°02'2 0.3 24.8
2016-Sep-20 14:00S 07°35' W 111°01'1 1.1 24.6
2016-Sep-20 13:00S 07°36' W 111°02'3 3.2 24.6
2016-Sep-20 12:00S 07°35' W 110°58'0 0.1 24.6
2016-Sep-20 10:00S 07°35' W 110°58'1 0.3 24.7
2016-Sep-20 06:00S 07°34' W 110°59'0 0.1 24.7
2016-Sep-20 05:00S 07°34' W 110°59'2 0.8 24.7
2016-Sep-20 03:00S 07°33' W 110°58'1 0.6 24.7
2016-Sep-20 01:00S 07°33' W 110°57'1 0.4 24.8
2016-Sep-19 23:00S 07°33' W 110°57'2 0.4 24.8
2016-Sep-19 17:00S 07°32' W 110°55'2 0.8 24.6
2016-Sep-19 15:00S 07°32' W 110°53'2 0.6 24.5
2016-Sep-19 12:00S 07°33' W 110°52'0 0.1 24.5
2016-Sep-19 10:00S 07°33' W 110°51'1 0.4 24.5
2016-Sep-19 08:00S 07°33' W 110°52'0 0.0 24.5
2016-Sep-19 06:00S 07°33' W 110°52'1 0.9 24.5
2016-Sep-19 05:00S 07°34' W 110°52'0 0.4 24.5
2016-Sep-19 04:00S 07°33' W 110°52'0 0.1 24.5
2016-Sep-19 03:00S 07°33' W 110°52'0 0.0 24.6
2016-Sep-19 02:00S 07°33' W 110°52'1 0.9 24.6
2016-Sep-19 01:00S 07°33' W 110°51'1 0.5 24.7
2016-Sep-19 00:00S 07°33' W 110°51'1 1.1 24.7
2016-Sep-18 23:00S 07°33' W 110°52'1 0.3 24.8
2016-Sep-18 21:00S 07°33' W 110°52'0 0.0 24.6
2016-Sep-18 18:00S 07°33' W 110°52'0 0.5 24.4
2016-Sep-18 17:00S 07°33' W 110°52'1 0.2 24.4
2016-Sep-18 13:00S 07°32' W 110°53'0 0.5 24.3
2016-Sep-18 12:00S 07°32' W 110°53'2 1.2 24.3
2016-Sep-18 10:00S 07°30' W 110°55'   24.3
Track history (hours):
 
Tides and Currents Weather Stations Pressure Air Temp Water Temp Dewpoint Dewpoint Depression Visibility Wind Speed Wind Dir Waves Ship Positions

Aadnyj

Last reported at 2016-Sep-28 10:00 UTC. Time now 2016-Sep-28 11:58 UTC.
Position S 07°26' W 111°44'.

Length 56 m.

Type: Towing. MMSI: 413600286.

Water temperature 24.8 ° C

Date/timePositionNaut miles runAvg speedWind from/ knotsBaromVisibWave heightAir tempDewpointWater temp
2016-Sep-28 10:00S 07°26' W 111°44'1 0.5 24.8
2016-Sep-28 08:00S 07°27' W 111°45'0 0.0 24.7
2016-Sep-28 05:00S 07°27' W 111°45'1 1.0 24.8
2016-Sep-28 04:00S 07°27' W 111°46'0 0.0 24.8
2016-Sep-28 03:00S 07°27' W 111°46'0 0.0 24.8
2016-Sep-28 02:00S 07°27' W 111°46'0 0.5 24.8
2016-Sep-28 01:00S 07°27' W 111°45'1 0.9 24.8
2016-Sep-28 00:00S 07°27' W 111°44'0 0.0 24.8
2016-Sep-27 23:00S 07°27' W 111°44'2 0.8 24.9
2016-Sep-27 21:00S 07°29' W 111°45'2 0.4 24.9
2016-Sep-27 17:00S 07°30' W 111°44'0 0.1 24.8
2016-Sep-27 16:00S 07°30' W 111°44'1 0.3 24.8
2016-Sep-27 13:00S 07°31' W 111°45'0 0.1 24.8
2016-Sep-27 12:00S 07°31' W 111°45'1 0.4 24.8
2016-Sep-27 10:00S 07°32' W 111°45'1 0.4 24.8
2016-Sep-27 08:00S 07°32' W 111°46'1 0.3 24.9
2016-Sep-27 05:00S 07°32' W 111°45'0 0.0 24.9
2016-Sep-27 04:00S 07°32' W 111°45'1 0.4 24.9
2016-Sep-27 01:00S 07°32' W 111°46'1 0.6 24.9
2016-Sep-26 23:00S 07°33' W 111°45'1 0.3 24.9
2016-Sep-26 21:00S 07°33' W 111°45'1 0.2 24.9
2016-Sep-26 18:00S 07°34' W 111°45'0 0.0 24.8
2016-Sep-26 16:00S 07°34' W 111°45'2 0.8 24.8
2016-Sep-26 14:00S 07°34' W 111°44'1 0.7 24.7
2016-Sep-26 13:00S 07°35' W 111°45'0 0.0 24.7
2016-Sep-26 12:00S 07°35' W 111°45'2 0.9 24.7
2016-Sep-26 10:00S 07°35' W 111°43'0 0.5 24.7
2016-Sep-26 09:00S 07°35' W 111°42'0 0.0 24.7
2016-Sep-26 05:00S 07°35' W 111°42'0 0.1 24.7
2016-Sep-26 02:00S 07°35' W 111°42'2 1.5 24.8
2016-Sep-26 01:00S 07°36' W 111°41'3 0.7 24.8
2016-Sep-25 21:00S 07°38' W 111°39'0 0.0 24.8
2016-Sep-25 16:00S 07°38' W 111°39'1 1.0 24.6
2016-Sep-25 15:00S 07°38' W 111°38'1 0.7 24.6
2016-Sep-25 13:00S 07°38' W 111°37'1 0.2 24.6
2016-Sep-25 09:00S 07°39' W 111°37'1 0.1 24.5
2016-Sep-25 02:00S 07°40' W 111°37'0 0.5 24.6
2016-Sep-25 01:00S 07°40' W 111°37'0 0.3 24.6
2016-Sep-25 00:00S 07°40' W 111°36'1 0.8 24.6
2016-Sep-24 23:00S 07°41' W 111°36'0 0.2 24.6
2016-Sep-24 22:00S 07°41' W 111°36'1 0.2 24.6
2016-Sep-24 17:00S 07°41' W 111°36'0 0.0 24.5
2016-Sep-24 14:00S 07°41' W 111°36'2 2.1 24.5
2016-Sep-24 13:00S 07°41' W 111°34'1 0.7 24.5
2016-Sep-24 12:00S 07°40' W 111°34'2 0.3 24.5
2016-Sep-24 04:00S 07°40' W 111°32'1 0.4 24.6
2016-Sep-24 02:00S 07°40' W 111°31'5 2.6 24.6
2016-Sep-24 00:00S 07°39' W 111°26'0 0.0 24.7
2016-Sep-23 22:00S 07°39' W 111°26'0 0.0 24.7
2016-Sep-23 18:00S 07°39' W 111°26'0 0.0 24.5
2016-Sep-23 17:00S 07°39' W 111°26'3 0.5 24.5
2016-Sep-23 12:00S 07°39' W 111°24'1 0.4 24.5
2016-Sep-23 09:00S 07°40' W 111°23'1 0.2 24.5
2016-Sep-23 05:00S 07°40' W 111°22'0 0.1 24.6
2016-Sep-23 02:00S 07°39' W 111°22'1 1.4 24.7
2016-Sep-23 01:00S 07°40' W 111°21'3 2.5 24.8
2016-Sep-23 00:00S 07°40' W 111°18'0 0.0 24.8
2016-Sep-22 22:00S 07°40' W 111°18'2 0.8 24.8
2016-Sep-22 20:00S 07°40' W 111°16'2 0.2 24.8
2016-Sep-22 12:00S 07°40' W 111°15'4 0.6 24.7
2016-Sep-22 05:00S 07°40' W 111°10'2 1.7 24.7
2016-Sep-22 04:00S 07°39' W 111°09'0 0.0 24.7
2016-Sep-22 02:00S 07°39' W 111°09'1 0.2 24.8
2016-Sep-21 21:00S 07°39' W 111°08'0 0.0 24.8
2016-Sep-21 18:00S 07°39' W 111°08'0 0.1 24.7
2016-Sep-21 14:00S 07°39' W 111°07'2 0.8 24.7
2016-Sep-21 12:00S 07°38' W 111°08'0 0.0 24.7
2016-Sep-21 10:00S 07°38' W 111°08'3 2.6 24.7
2016-Sep-21 09:00S 07°37' W 111°05'0 0.0 24.7
2016-Sep-21 06:00S 07°37' W 111°05'1 0.9 24.7
2016-Sep-21 05:00S 07°37' W 111°04'1 1.3 24.7
2016-Sep-21 04:00S 07°36' W 111°04'1 0.8 24.7
2016-Sep-21 03:00S 07°36' W 111°03'0 0.0 24.7
2016-Sep-21 02:00S 07°36' W 111°03'1 0.6 24.8
2016-Sep-21 01:00S 07°36' W 111°04'2 0.5 24.8
2016-Sep-20 22:00S 07°36' W 111°02'1 0.5 24.8
2016-Sep-20 21:00S 07°36' W 111°02'2 0.3 24.8
2016-Sep-20 14:00S 07°35' W 111°01'1 1.1 24.6
2016-Sep-20 13:00S 07°36' W 111°02'3 3.2 24.6
2016-Sep-20 12:00S 07°35' W 110°58'0 0.1 24.6
2016-Sep-20 10:00S 07°35' W 110°58'1 0.3 24.7
2016-Sep-20 06:00S 07°34' W 110°59'0 0.1 24.7
2016-Sep-20 05:00S 07°34' W 110°59'2 0.8 24.7
2016-Sep-20 03:00S 07°33' W 110°58'1 0.6 24.7
2016-Sep-20 01:00S 07°33' W 110°57'1 0.4 24.8
2016-Sep-19 23:00S 07°33' W 110°57'2 0.4 24.8
2016-Sep-19 17:00S 07°32' W 110°55'2 0.8 24.6
2016-Sep-19 15:00S 07°32' W 110°53'2 0.6 24.5
2016-Sep-19 12:00S 07°33' W 110°52'0 0.1 24.5
2016-Sep-19 10:00S 07°33' W 110°51'1 0.4 24.5
2016-Sep-19 08:00S 07°33' W 110°52'0 0.0 24.5
2016-Sep-19 06:00S 07°33' W 110°52'1 0.9 24.5
2016-Sep-19 05:00S 07°34' W 110°52'0 0.4 24.5
2016-Sep-19 04:00S 07°33' W 110°52'0 0.1 24.5
2016-Sep-19 03:00S 07°33' W 110°52'0 0.0 24.6
2016-Sep-19 02:00S 07°33' W 110°52'1 0.9 24.6
2016-Sep-19 01:00S 07°33' W 110°51'1 0.5 24.7
2016-Sep-19 00:00S 07°33' W 110°51'1 1.1 24.7
2016-Sep-18 23:00S 07°33' W 110°52'1 0.3 24.8
2016-Sep-18 21:00S 07°33' W 110°52'0 0.0 24.6
2016-Sep-18 18:00S 07°33' W 110°52'0 0.5 24.4
2016-Sep-18 17:00S 07°33' W 110°52'1 0.2 24.4
2016-Sep-18 13:00S 07°32' W 110°53'0 0.5 24.3
2016-Sep-18 12:00S 07°32' W 110°53'2 1.2 24.3
2016-Sep-18 10:00S 07°30' W 110°55'   24.3

Dump ship's entire track history